createdAt,value
2023-02-28T00:00:35.340Z,6.55
2023-02-28T00:03:02.096Z,5.22
2023-02-28T00:05:29.424Z,5.78
2023-02-28T00:07:56.369Z,5.13
2023-02-28T00:10:25.698Z,4.43
2023-02-28T00:12:52.779Z,5.95
2023-02-28T00:15:19.909Z,4.65
2023-02-28T00:17:46.801Z,4.95
2023-02-28T00:20:14.366Z,6.10
2023-02-28T00:22:43.072Z,5.28
2023-02-28T00:25:10.620Z,5.13
2023-02-28T00:27:38.375Z,9.82
2023-02-28T00:30:06.355Z,6.30
2023-02-28T00:32:33.346Z,4.93
2023-02-28T00:35:00.014Z,5.18
2023-02-28T00:37:26.850Z,5.95
2023-02-28T00:39:53.539Z,4.97
2023-02-28T00:42:20.267Z,4.32
2023-02-28T00:44:46.939Z,4.63
2023-02-28T00:47:13.682Z,5.88
2023-02-28T00:49:40.589Z,5.32
2023-02-28T00:52:07.298Z,5.80
2023-02-28T00:54:34.018Z,4.32
2023-02-28T00:57:01.024Z,4.00
2023-02-28T00:59:27.732Z,5.88
2023-02-28T01:01:54.454Z,3.65
2023-02-28T01:04:21.306Z,5.22
2023-02-28T01:06:48.000Z,4.47
2023-02-28T01:09:14.707Z,4.18
2023-02-28T01:11:42.688Z,4.25
2023-02-28T01:14:09.696Z,5.80
2023-02-28T01:16:36.379Z,6.00
2023-02-28T01:19:03.072Z,5.25
2023-02-28T01:21:31.074Z,5.15
2023-02-28T01:23:58.959Z,5.20
2023-02-28T01:26:25.913Z,3.58
2023-02-28T01:28:53.281Z,5.38
2023-02-28T01:31:20.739Z,6.07
2023-02-28T01:33:47.556Z,4.30
2023-02-28T01:36:22.540Z,4.38
2023-02-28T01:38:49.345Z,5.07
2023-02-28T01:41:28.658Z,6.22
2023-02-28T01:44:04.408Z,4.72
2023-02-28T01:46:36.789Z,4.63
2023-02-28T01:49:10.858Z,4.47
2023-02-28T01:51:39.663Z,7.38
2023-02-28T01:54:17.417Z,7.10
2023-02-28T01:56:56.217Z,6.82
2023-02-28T01:59:33.759Z,4.88
2023-02-28T02:02:01.181Z,5.85
2023-02-28T02:04:34.169Z,7.05
2023-02-28T02:07:00.954Z,6.18
2023-02-28T02:09:27.673Z,4.32
2023-02-28T02:11:54.345Z,4.82
2023-02-28T02:14:30.169Z,6.18
2023-02-28T02:17:21.287Z,5.60
2023-02-28T02:20:00.053Z,5.82
2023-02-28T02:23:04.392Z,6.68
2023-02-28T02:25:36.201Z,4.82
2023-02-28T02:28:20.114Z,5.10
2023-02-28T02:31:23.007Z,5.03
2023-02-28T02:33:58.731Z,7.25
2023-02-28T02:36:26.235Z,4.72
2023-02-28T02:38:57.441Z,7.35
2023-02-28T02:41:30.509Z,6.28
2023-02-28T02:44:11.622Z,7.57
2023-02-28T02:46:47.546Z,5.07
2023-02-28T02:49:21.645Z,6.30
2023-02-28T02:51:48.957Z,5.82
2023-02-28T02:54:17.032Z,5.78
2023-02-28T02:56:44.944Z,6.53
2023-02-28T02:59:13.931Z,6.53
2023-02-28T03:01:40.831Z,5.50
2023-02-28T03:04:13.933Z,7.22
2023-02-28T03:09:07.193Z,5.95
2023-02-28T03:11:33.968Z,7.85
2023-02-28T03:14:39.370Z,4.88
2023-02-28T03:17:15.095Z,5.68
2023-02-28T03:19:46.772Z,7.22
2023-02-28T03:22:32.330Z,7.70
2023-02-28T03:25:09.643Z,5.82
2023-02-28T03:27:42.792Z,7.47
2023-02-28T03:33:17.552Z,5.28
2023-02-28T03:36:06.103Z,7.10
2023-02-28T03:38:42.449Z,8.80
2023-02-28T03:41:16.572Z,6.25
2023-02-28T03:43:46.526Z,5.50
2023-02-28T03:46:15.155Z,6.30
2023-02-28T03:48:47.212Z,5.45
2023-02-28T03:51:18.349Z,7.00
2023-02-28T03:53:52.573Z,7.00
2023-02-28T03:56:26.121Z,8.65
2023-02-28T03:58:53.187Z,5.70
2023-02-28T04:01:32.581Z,6.88
2023-02-28T04:03:59.399Z,6.13
2023-02-28T04:06:26.318Z,8.13
2023-02-28T04:08:53.055Z,7.70
2023-02-28T04:11:19.733Z,6.55
2023-02-28T04:13:47.599Z,5.90
2023-02-28T04:16:24.493Z,5.82
2023-02-28T04:19:03.260Z,6.25
2023-02-28T04:21:34.601Z,9.57
2023-02-28T04:24:01.851Z,7.47
2023-02-28T04:26:37.195Z,7.88
2023-02-28T04:29:05.361Z,5.55
2023-02-28T04:31:32.523Z,7.38
2023-02-28T04:33:59.343Z,6.50
2023-02-28T04:36:26.147Z,5.72
2023-02-28T04:38:53.212Z,6.70
2023-02-28T04:41:20.184Z,8.57
2023-02-28T04:43:46.905Z,5.93
2023-02-28T04:46:13.608Z,6.18
2023-02-28T04:48:41.330Z,7.68
2023-02-28T04:51:11.939Z,9.07
2023-02-28T04:53:40.087Z,6.78
2023-02-28T04:56:07.266Z,6.00
2023-02-28T04:58:34.313Z,7.05
2023-02-28T05:01:16.494Z,8.98
2023-02-28T05:03:44.051Z,8.20
2023-02-28T05:06:11.664Z,6.78
2023-02-28T05:08:38.588Z,6.97
2023-02-28T05:11:13.194Z,8.05
2023-02-28T05:13:39.879Z,8.57
2023-02-28T05:16:07.050Z,10.57
2023-02-28T05:18:33.856Z,8.90
2023-02-28T05:21:03.278Z,8.63
2023-02-28T05:23:30.427Z,7.55
2023-02-28T05:25:57.216Z,10.98
2023-02-28T05:28:23.970Z,8.88
2023-02-28T05:30:50.642Z,11.35
2023-02-28T05:33:17.391Z,10.23
2023-02-28T05:35:44.219Z,9.88
2023-02-28T05:38:10.949Z,9.00
2023-02-28T05:40:40.265Z,10.18
2023-02-28T05:43:07.006Z,9.35
2023-02-28T05:45:33.811Z,9.90
2023-02-28T05:48:00.764Z,8.40
2023-02-28T05:50:27.473Z,8.73
2023-02-28T05:52:54.297Z,7.93
2023-02-28T05:55:20.936Z,10.98
2023-02-28T05:57:47.646Z,9.15
2023-02-28T06:00:16.129Z,9.55
2023-02-28T06:02:42.875Z,8.57
2023-02-28T06:05:14.702Z,7.63
2023-02-28T06:07:41.444Z,7.07
2023-02-28T06:10:08.634Z,8.20
2023-02-28T06:12:35.337Z,8.93
2023-02-28T06:15:02.166Z,7.63
2023-02-28T06:17:28.893Z,8.40
2023-02-28T06:19:55.658Z,10.55
2023-02-28T06:22:22.427Z,8.75
2023-02-28T06:24:49.165Z,9.35
2023-02-28T06:27:15.961Z,8.35
2023-02-28T06:29:42.749Z,9.18
2023-02-28T06:32:09.477Z,8.50
2023-02-28T06:34:36.204Z,9.35
2023-02-28T06:37:03.255Z,9.90
2023-02-28T06:39:31.304Z,10.73
2023-02-28T06:41:58.241Z,13.00
2023-02-28T06:44:25.598Z,10.00
2023-02-28T06:46:52.378Z,7.55
2023-02-28T06:49:19.068Z,7.70
2023-02-28T06:51:46.858Z,9.00
2023-02-28T06:54:14.672Z,11.65
2023-02-28T06:56:41.423Z,10.65
2023-02-28T06:59:08.178Z,10.63
2023-02-28T07:01:34.967Z,8.02
2023-02-28T07:04:02.285Z,10.63
2023-02-28T07:06:29.248Z,9.98
2023-02-28T07:08:56.219Z,10.82
2023-02-28T07:11:26.621Z,8.93
2023-02-28T07:13:57.229Z,10.50
2023-02-28T07:16:25.582Z,9.05
2023-02-28T07:18:55.974Z,7.43
2023-02-28T07:21:23.069Z,8.68
2023-02-28T07:23:50.154Z,8.48
2023-02-28T07:26:18.297Z,9.73
2023-02-28T07:28:46.838Z,10.13
2023-02-28T07:31:19.513Z,7.55
2023-02-28T07:33:46.599Z,10.55
2023-02-28T07:36:16.377Z,8.60
2023-02-28T07:38:54.393Z,10.70
2023-02-28T07:41:22.725Z,10.27
2023-02-28T07:43:49.610Z,8.15
2023-02-28T07:46:17.350Z,8.70
2023-02-28T07:48:44.827Z,8.20
2023-02-28T07:51:11.568Z,10.20
2023-02-28T07:53:38.386Z,10.52
2023-02-28T07:56:05.428Z,9.32
2023-02-28T07:58:32.405Z,8.85
2023-02-28T08:01:05.723Z,10.43
2023-02-28T08:03:32.448Z,9.32
2023-02-28T08:05:59.202Z,12.43
2023-02-28T08:08:32.312Z,9.15
2023-02-28T08:13:26.469Z,10.27
2023-02-28T08:15:53.151Z,12.52
2023-02-28T08:18:19.943Z,11.85
2023-02-28T08:20:46.667Z,9.40
2023-02-28T08:23:13.388Z,11.40
2023-02-28T08:25:40.510Z,11.80
2023-02-28T08:28:07.221Z,10.13
2023-02-28T08:30:33.946Z,11.07
2023-02-28T08:33:00.812Z,9.65
2023-02-28T08:35:27.510Z,11.20
2023-02-28T08:37:54.266Z,11.90
2023-02-28T08:40:21.115Z,13.43
2023-02-28T08:42:48.569Z,10.10
2023-02-28T08:45:15.693Z,10.35
2023-02-28T08:47:45.485Z,10.43
2023-02-28T08:50:12.279Z,9.57
2023-02-28T08:52:39.665Z,9.90
2023-02-28T08:55:06.838Z,9.27
2023-02-28T08:57:33.948Z,9.80
2023-02-28T09:00:01.108Z,11.88
2023-02-28T09:02:28.031Z,10.25
2023-02-28T09:04:55.594Z,9.95
2023-02-28T09:07:22.410Z,10.65
2023-02-28T09:09:55.057Z,10.70
2023-02-28T09:12:26.159Z,10.52
2023-02-28T09:14:55.216Z,10.48
2023-02-28T09:17:22.144Z,11.05
2023-02-28T09:19:50.174Z,10.20
2023-02-28T09:22:19.115Z,11.32
2023-02-28T09:24:46.005Z,11.45
2023-02-28T09:27:12.827Z,12.68
2023-02-28T09:29:39.706Z,11.90
2023-02-28T09:32:06.929Z,12.25
2023-02-28T09:34:34.161Z,10.50
2023-02-28T09:37:01.043Z,12.13
2023-02-28T09:39:28.084Z,9.40
2023-02-28T09:42:00.014Z,11.90
2023-02-28T09:44:37.490Z,9.75
2023-02-28T09:47:17.372Z,9.38
2023-02-28T09:49:47.603Z,11.73
2023-02-28T09:52:23.260Z,10.30
2023-02-28T09:54:49.944Z,11.02
2023-02-28T09:57:40.187Z,8.93
2023-02-28T10:00:11.210Z,11.20
2023-02-28T10:03:02.557Z,10.38
2023-02-28T10:05:34.662Z,12.02
2023-02-28T10:08:14.801Z,10.93
2023-02-28T10:10:49.759Z,10.25
2023-02-28T10:13:37.967Z,13.07
2023-02-28T10:16:09.290Z,10.68
2023-02-28T10:19:08.425Z,11.60
2023-02-28T10:21:41.197Z,10.63
2023-02-28T10:24:20.024Z,11.68
2023-02-28T10:26:46.932Z,10.18
2023-02-28T10:29:13.666Z,10.52
2023-02-28T10:31:40.860Z,10.98
2023-02-28T10:34:08.606Z,10.57
2023-02-28T10:36:36.229Z,9.23
2023-02-28T10:39:03.129Z,10.90
2023-02-28T10:41:37.465Z,11.13
2023-02-28T10:44:23.048Z,10.00
2023-02-28T10:46:50.437Z,13.57
2023-02-28T10:49:29.115Z,9.82
2023-02-28T10:52:00.674Z,14.60
2023-02-28T10:54:39.109Z,9.45
2023-02-28T10:57:12.999Z,10.00
2023-02-28T10:59:39.706Z,11.57
2023-02-28T11:02:35.903Z,10.90
2023-02-28T11:05:03.391Z,9.38
2023-02-28T11:07:37.406Z,12.20
2023-02-28T11:10:10.199Z,10.27
2023-02-28T11:12:50.810Z,12.52
2023-02-28T11:15:21.649Z,9.88
2023-02-28T11:18:03.748Z,8.70
2023-02-28T11:20:31.941Z,11.27
2023-02-28T11:22:59.655Z,10.63
2023-02-28T11:25:28.260Z,9.73
2023-02-28T11:27:57.346Z,11.23
2023-02-28T11:30:30.390Z,9.55
2023-02-28T11:35:33.448Z,10.75
2023-02-28T11:38:00.285Z,10.32
2023-02-28T11:41:10.250Z,11.68
2023-02-28T11:44:11.243Z,11.20
2023-02-28T11:46:56.087Z,12.27
2023-02-28T11:49:48.939Z,8.68
2023-02-28T11:52:51.039Z,10.18
2023-02-28T11:55:22.682Z,9.20
2023-02-28T11:58:04.492Z,9.32
2023-02-28T12:00:40.201Z,9.55
2023-02-28T12:03:19.197Z,10.27
2023-02-28T12:05:47.974Z,10.40
2023-02-28T12:08:30.760Z,11.90
2023-02-28T12:11:04.429Z,9.90
2023-02-28T12:14:01.700Z,9.02
2023-02-28T12:16:46.977Z,10.82
2023-02-28T12:19:36.514Z,8.88
2023-02-28T12:22:09.201Z,9.40
2023-02-28T12:24:51.251Z,9.45
2023-02-28T12:27:19.146Z,9.88
2023-02-28T12:29:51.785Z,9.23
2023-02-28T12:32:31.755Z,10.55
2023-02-28T12:35:13.193Z,10.70
2023-02-28T12:37:51.489Z,9.63
2023-02-28T12:40:24.842Z,10.48
2023-02-28T12:42:58.367Z,9.45
2023-02-28T12:45:52.738Z,8.52
2023-02-28T12:48:33.114Z,10.50
2023-02-28T12:51:01.225Z,7.68
2023-02-28T12:53:56.281Z,7.32
2023-02-28T12:56:45.108Z,8.65
2023-02-28T12:59:36.140Z,9.88
2023-02-28T13:02:23.974Z,11.15
2023-02-28T13:05:16.170Z,9.50
2023-02-28T13:08:02.598Z,7.63
2023-02-28T13:10:50.989Z,8.55
2023-02-28T13:13:20.125Z,20.80
2023-02-28T13:16:00.847Z,7.70
2023-02-28T13:18:47.083Z,9.43
2023-02-28T13:21:24.391Z,7.30
2023-02-28T13:23:58.194Z,7.15
2023-02-28T13:26:51.342Z,7.63
2023-02-28T13:29:18.046Z,6.40
2023-02-28T13:32:07.097Z,9.73
2023-02-28T13:35:05.448Z,6.40
2023-02-28T13:37:38.634Z,7.43
2023-02-28T13:40:11.523Z,8.45
2023-02-28T13:42:50.682Z,7.90
2023-02-28T13:45:28.760Z,10.55
2023-02-28T13:48:03.643Z,7.50
2023-02-28T13:50:39.061Z,6.88
2023-02-28T13:53:23.312Z,8.75
2023-02-28T13:56:12.141Z,7.55
2023-02-28T13:58:51.243Z,8.07
2023-02-28T14:01:37.703Z,9.80
2023-02-28T14:04:23.211Z,9.80
2023-02-28T14:06:53.639Z,9.52
2023-02-28T14:09:40.701Z,8.75
2023-02-28T14:12:45.967Z,8.55
2023-02-28T14:15:34.536Z,8.55
2023-02-28T14:18:02.576Z,9.63
2023-02-28T14:20:31.735Z,8.90
2023-02-28T14:23:22.538Z,9.15
2023-02-28T14:25:54.217Z,7.80
2023-02-28T14:28:26.943Z,10.75
2023-02-28T14:30:56.657Z,9.30
2023-02-28T14:33:30.878Z,9.23
2023-02-28T14:36:17.871Z,7.60
2023-02-28T14:38:46.750Z,10.45
2023-02-28T14:41:24.052Z,9.52
2023-02-28T14:43:56.591Z,8.63
2023-02-28T14:46:24.332Z,8.18
2023-02-28T14:48:51.130Z,9.27
2023-02-28T14:51:22.757Z,12.30
2023-02-28T14:54:02.839Z,9.68
2023-02-28T14:56:39.981Z,9.32
2023-02-28T14:59:07.544Z,8.70
2023-02-28T15:01:34.741Z,11.13
2023-02-28T15:04:08.016Z,9.52
2023-02-28T15:06:34.889Z,11.30
2023-02-28T15:09:18.595Z,10.25
2023-02-28T15:11:49.901Z,8.30
2023-02-28T15:14:21.880Z,8.10
2023-02-28T15:16:53.178Z,8.88
2023-02-28T15:19:24.107Z,11.38
2023-02-28T15:21:53.789Z,11.57
2023-02-28T15:24:33.838Z,17.50
2023-02-28T15:27:03.542Z,9.80
2023-02-28T15:29:31.649Z,11.18
2023-02-28T15:32:03.009Z,10.07
2023-02-28T15:34:44.297Z,10.00
2023-02-28T15:37:47.330Z,10.98
2023-02-28T15:40:35.950Z,15.70
2023-02-28T15:43:16.805Z,11.50
2023-02-28T15:45:58.028Z,9.70
2023-02-28T15:48:46.542Z,9.75
2023-02-28T15:51:13.266Z,9.93
2023-02-28T15:54:09.924Z,9.50
2023-02-28T15:56:44.782Z,10.63
2023-02-28T15:59:28.723Z,9.75
2023-02-28T16:02:10.908Z,11.00
2023-02-28T16:04:38.202Z,11.02
2023-02-28T16:07:06.830Z,10.13
2023-02-28T16:09:35.211Z,14.02
2023-02-28T16:12:02.996Z,9.60
2023-02-28T16:14:33.482Z,10.70
2023-02-28T16:17:05.535Z,12.90
2023-02-28T16:19:34.596Z,10.77
2023-02-28T16:22:02.157Z,11.15
2023-02-28T16:24:29.047Z,13.75
2023-02-28T16:26:56.239Z,10.55
2023-02-28T16:29:33.660Z,13.85
2023-02-28T16:32:00.516Z,11.45
2023-02-28T16:34:27.452Z,16.13
2023-02-28T16:36:54.269Z,14.00
2023-02-28T16:39:24.004Z,9.98
2023-02-28T16:41:50.871Z,11.55
2023-02-28T16:44:36.558Z,11.73
2023-02-28T16:47:04.582Z,12.25
2023-02-28T16:49:31.589Z,10.38
2023-02-28T16:51:58.559Z,11.85
2023-02-28T16:54:25.770Z,12.68
2023-02-28T16:56:52.687Z,10.73
2023-02-28T16:59:29.142Z,9.35
2023-02-28T17:01:58.728Z,12.48
2023-02-28T17:04:27.272Z,12.45
2023-02-28T17:06:54.119Z,13.65
2023-02-28T17:09:26.240Z,14.35
2023-02-28T17:11:57.855Z,13.35
2023-02-28T17:14:24.644Z,12.52
2023-02-28T17:16:51.374Z,14.65
2023-02-28T17:19:18.693Z,14.30
2023-02-28T17:21:45.567Z,14.80
2023-02-28T17:24:22.161Z,14.57
2023-02-28T17:26:56.749Z,13.85
2023-02-28T17:29:23.599Z,15.25
2023-02-28T17:31:50.657Z,17.45
2023-02-28T17:34:19.515Z,18.33
2023-02-28T17:36:47.710Z,14.10
2023-02-28T17:39:15.701Z,16.08
2023-02-28T17:41:43.794Z,18.02
2023-02-28T17:44:10.589Z,20.08
2023-02-28T17:46:37.448Z,15.82
2023-02-28T17:49:04.450Z,14.50
2023-02-28T17:51:31.361Z,14.48
2023-02-28T17:53:58.508Z,15.30
2023-02-28T17:56:26.460Z,16.42
2023-02-28T17:58:55.696Z,16.65
2023-02-28T18:01:23.902Z,16.80
2023-02-28T18:03:51.195Z,16.85
2023-02-28T18:06:23.730Z,14.73
2023-02-28T18:08:52.710Z,18.27
2023-02-28T18:11:23.546Z,16.70
2023-02-28T18:13:54.504Z,19.05
2023-02-28T18:16:24.592Z,15.30
2023-02-28T18:18:51.779Z,15.07
2023-02-28T18:21:18.657Z,18.17
2023-02-28T18:23:48.671Z,14.45
2023-02-28T18:26:16.840Z,17.08
2023-02-28T18:28:44.807Z,15.70
2023-02-28T18:31:18.143Z,16.33
2023-02-28T18:33:48.068Z,15.98
2023-02-28T18:36:14.955Z,17.85
2023-02-28T18:38:42.377Z,14.85
2023-02-28T18:41:09.162Z,19.15
2023-02-28T18:43:38.535Z,22.35
2023-02-28T18:46:07.449Z,18.33
2023-02-28T18:48:34.763Z,18.40
2023-02-28T18:51:13.065Z,15.70
2023-02-28T18:53:40.724Z,19.48
2023-02-28T18:56:08.532Z,16.15
2023-02-28T18:58:35.866Z,22.42
2023-02-28T19:01:04.058Z,18.38
2023-02-28T19:03:30.979Z,18.52
2023-02-28T19:05:59.687Z,16.88
2023-02-28T19:08:27.252Z,17.65
2023-02-28T19:10:54.035Z,20.83
2023-02-28T19:13:20.926Z,23.65
2023-02-28T19:15:48.305Z,30.65
2023-02-28T19:18:15.456Z,31.48
2023-02-28T19:20:42.363Z,30.70
2023-02-28T19:23:11.839Z,26.15
2023-02-28T19:25:42.569Z,24.90
2023-02-28T19:28:09.350Z,22.92
2023-02-28T19:30:36.059Z,21.20
2023-02-28T19:33:02.823Z,21.60
2023-02-28T19:35:29.810Z,22.58
2023-02-28T19:37:58.256Z,21.33
2023-02-28T19:40:25.569Z,20.67
2023-02-28T19:42:52.229Z,19.20
2023-02-28T19:45:18.936Z,21.60
2023-02-28T19:47:45.638Z,21.25
2023-02-28T19:50:12.387Z,19.23
2023-02-28T19:52:39.054Z,19.70
2023-02-28T19:55:06.132Z,18.42
2023-02-28T19:57:32.883Z,20.05
2023-02-28T20:00:00.340Z,20.50
2023-02-28T20:02:27.738Z,25.92
2023-02-28T20:04:55.097Z,18.35
2023-02-28T20:07:21.829Z,19.52
2023-02-28T20:09:48.731Z,19.45
2023-02-28T20:12:24.142Z,24.85
2023-02-28T20:14:51.634Z,19.75
2023-02-28T20:17:18.530Z,22.75
2023-02-28T20:19:45.746Z,18.90
2023-02-28T20:22:12.576Z,23.75
2023-02-28T20:24:39.292Z,20.83
2023-02-28T20:27:06.031Z,19.27
2023-02-28T20:29:34.029Z,26.08
2023-02-28T20:32:00.795Z,19.75
2023-02-28T20:34:27.745Z,22.63
2023-02-28T20:36:56.627Z,19.90
2023-02-28T20:39:23.940Z,22.13
2023-02-28T20:41:50.731Z,21.52
2023-02-28T20:44:17.442Z,18.30
2023-02-28T20:46:44.261Z,22.15
2023-02-28T20:49:11.104Z,22.75
2023-02-28T20:51:40.183Z,19.50
2023-02-28T20:54:07.766Z,20.85
2023-02-28T20:56:34.725Z,20.65
2023-02-28T20:59:01.503Z,21.73
2023-02-28T21:01:28.866Z,20.95
2023-02-28T21:03:59.598Z,21.92
2023-02-28T21:06:29.163Z,20.88
2023-02-28T21:08:57.049Z,20.92
2023-02-28T21:11:25.866Z,22.95
2023-02-28T21:13:53.370Z,21.63
2023-02-28T21:16:21.971Z,22.40
2023-02-28T21:18:48.946Z,21.88
2023-02-28T21:21:23.463Z,20.70
2023-02-28T21:23:50.779Z,20.63
2023-02-28T21:26:23.147Z,20.88
2023-02-28T21:28:53.970Z,22.10
2023-02-28T21:31:23.412Z,18.23
2023-02-28T21:33:50.404Z,21.95
2023-02-28T21:36:21.020Z,24.50
2023-02-28T21:38:48.420Z,21.60
2023-02-28T21:41:20.481Z,21.92
2023-02-28T21:43:47.503Z,24.70
2023-02-28T21:46:16.548Z,23.80
2023-02-28T21:48:43.549Z,26.67
2023-02-28T21:51:20.060Z,22.77
2023-02-28T21:53:51.346Z,24.17
2023-02-28T21:56:24.697Z,22.75
2023-02-28T21:59:00.824Z,23.15
2023-02-28T22:01:34.778Z,22.35
2023-02-28T22:04:02.636Z,25.05
2023-02-28T22:06:31.785Z,24.92
2023-02-28T22:09:00.499Z,23.50
2023-02-28T22:11:27.136Z,26.45
2023-02-28T22:13:56.161Z,23.75
2023-02-28T22:16:24.442Z,27.08
2023-02-28T22:18:51.389Z,26.23
2023-02-28T22:21:19.147Z,24.98
2023-02-28T22:23:46.428Z,23.30
2023-02-28T22:26:15.352Z,24.05
2023-02-28T22:28:42.275Z,22.23
2023-02-28T22:31:30.453Z,27.20
2023-02-28T22:33:59.724Z,24.15
2023-02-28T22:36:26.490Z,24.58
2023-02-28T22:38:53.777Z,25.48
2023-02-28T22:41:22.285Z,23.45
2023-02-28T22:43:54.450Z,23.35
2023-02-28T22:46:22.058Z,19.37
2023-02-28T22:48:49.231Z,24.70
2023-02-28T22:51:18.379Z,25.65
2023-02-28T22:53:46.310Z,22.90
2023-02-28T22:56:14.598Z,26.15
2023-02-28T22:58:41.533Z,23.73
2023-02-28T23:01:13.701Z,25.85
2023-02-28T23:03:40.990Z,23.17
2023-02-28T23:06:29.251Z,23.00
2023-02-28T23:08:58.473Z,26.33
2023-02-28T23:11:29.234Z,25.73
2023-02-28T23:13:58.805Z,21.58
2023-02-28T23:16:33.099Z,23.10
2023-02-28T23:19:02.068Z,24.20
2023-02-28T23:21:29.344Z,23.67
2023-02-28T23:23:56.214Z,27.27
2023-02-28T23:26:23.250Z,29.45
2023-02-28T23:28:50.012Z,22.40
2023-02-28T23:31:16.777Z,23.65
2023-02-28T23:33:43.549Z,25.02
2023-02-28T23:36:12.028Z,23.55
2023-02-28T23:38:39.974Z,22.13
2023-02-28T23:41:10.581Z,23.50
2023-02-28T23:43:37.444Z,22.65
2023-02-28T23:46:04.711Z,27.02
2023-02-28T23:48:31.574Z,23.40
2023-02-28T23:51:08.792Z,23.08
2023-02-28T23:53:40.212Z,25.50
2023-02-28T23:56:08.742Z,22.67
2023-02-28T23:58:35.606Z,24.70
